createdAt,value
2019-04-29T00:01:15.838Z,59.70
2019-04-29T00:03:44.446Z,60.50
2019-04-29T00:06:13.102Z,60.90
2019-04-29T00:08:41.907Z,60.60
2019-04-29T00:11:10.599Z,61.40
2019-04-29T00:13:39.146Z,61.40
2019-04-29T00:16:25.448Z,61.00
2019-04-29T00:19:01.300Z,61.00
2019-04-29T00:21:30.210Z,61.20
2019-04-29T00:24:04.165Z,61.60
2019-04-29T00:26:29.320Z,61.70
2019-04-29T00:28:58.006Z,62.60
2019-04-29T00:31:26.604Z,61.70
2019-04-29T00:33:55.302Z,61.80
2019-04-29T00:36:25.819Z,62.80
2019-04-29T00:38:56.240Z,62.30
2019-04-29T00:41:35.557Z,62.20
2019-04-29T00:44:05.658Z,63.20
2019-04-29T00:46:34.247Z,62.30
2019-04-29T00:49:03.127Z,62.80
2019-04-29T00:51:31.704Z,63.20
2019-04-29T00:54:01.955Z,63.40
2019-04-29T00:56:30.636Z,63.70
2019-04-29T00:58:59.157Z,63.20
2019-04-29T01:01:27.810Z,62.80
2019-04-29T01:03:56.379Z,63.90
2019-04-29T01:06:24.939Z,62.70
2019-04-29T01:08:53.542Z,63.30
2019-04-29T01:11:22.102Z,63.30
2019-04-29T01:13:50.709Z,64.20
2019-04-29T01:16:19.374Z,64.30
2019-04-29T01:18:48.037Z,63.90
2019-04-29T01:21:16.555Z,63.70
2019-04-29T01:23:45.145Z,63.40
2019-04-29T01:26:31.538Z,63.80
2019-04-29T01:29:01.656Z,64.70
2019-04-29T01:31:31.572Z,63.90
2019-04-29T01:34:01.896Z,63.90
2019-04-29T01:36:35.192Z,64.10
2019-04-29T01:39:05.595Z,63.40
2019-04-29T01:41:50.567Z,63.40
2019-04-29T01:44:20.921Z,63.70
2019-04-29T01:46:49.463Z,64.10
2019-04-29T01:49:18.064Z,64.50
2019-04-29T01:51:46.723Z,64.20
2019-04-29T01:54:15.302Z,64.40
2019-04-29T01:56:44.013Z,64.70
2019-04-29T01:59:12.433Z,64.60
2019-04-29T02:01:41.066Z,64.40
2019-04-29T02:04:09.665Z,64.50
2019-04-29T02:06:38.122Z,63.90
2019-04-29T02:09:10.185Z,64.00
2019-04-29T02:11:40.023Z,63.90
2019-04-29T02:14:08.711Z,63.70
2019-04-29T02:16:37.206Z,64.50
2019-04-29T02:19:05.654Z,64.20
2019-04-29T02:21:34.214Z,64.20
2019-04-29T02:24:07.118Z,64.30
2019-04-29T02:26:35.694Z,64.30
2019-04-29T02:29:04.474Z,64.10
2019-04-29T02:31:38.848Z,64.20
2019-04-29T02:34:07.932Z,63.70
2019-04-29T02:36:36.331Z,63.80
2019-04-29T02:39:11.926Z,64.20
2019-04-29T02:41:54.145Z,64.70
2019-04-29T02:44:22.741Z,64.60
2019-04-29T02:46:51.293Z,64.70
2019-04-29T02:49:19.955Z,64.70
2019-04-29T02:51:53.005Z,64.90
2019-04-29T02:54:22.862Z,64.60
2019-04-29T02:57:08.478Z,64.40
2019-04-29T02:59:44.626Z,64.30
2019-04-29T03:02:17.786Z,65.00
2019-04-29T03:04:50.672Z,64.90
2019-04-29T03:07:19.122Z,65.20
2019-04-29T03:09:47.605Z,65.20
2019-04-29T03:12:16.245Z,65.00
2019-04-29T03:14:44.714Z,65.00
2019-04-29T03:17:13.207Z,64.90
2019-04-29T03:19:59.801Z,64.90
2019-04-29T03:22:28.451Z,64.70
2019-04-29T03:24:56.947Z,64.70
2019-04-29T03:27:25.568Z,65.50
2019-04-29T03:29:54.203Z,64.50
2019-04-29T03:32:23.739Z,64.50
2019-04-29T03:34:52.243Z,64.70
2019-04-29T03:37:20.702Z,64.50
2019-04-29T03:39:49.187Z,64.60
2019-04-29T03:42:17.749Z,64.30
2019-04-29T03:44:46.351Z,64.20
2019-04-29T03:47:18.439Z,64.20
2019-04-29T03:49:45.116Z,64.30
2019-04-29T03:52:13.616Z,64.40
2019-04-29T03:54:42.221Z,64.30
2019-04-29T03:57:12.567Z,64.30
2019-04-29T03:59:42.842Z,64.30
2019-04-29T04:02:13.089Z,64.10
2019-04-29T04:05:00.714Z,64.70
2019-04-29T04:07:42.733Z,64.70
2019-04-29T04:10:11.365Z,64.90
2019-04-29T04:12:39.994Z,65.30
2019-04-29T04:15:08.643Z,65.10
2019-04-29T04:17:44.843Z,65.00
2019-04-29T04:20:14.225Z,64.80
2019-04-29T04:22:48.980Z,65.10
2019-04-29T04:25:18.591Z,64.90
2019-04-29T04:27:47.948Z,65.00
2019-04-29T04:30:16.483Z,65.10
2019-04-29T04:32:45.011Z,65.40
2019-04-29T04:35:15.788Z,65.40
2019-04-29T04:37:44.243Z,65.00
2019-04-29T04:40:14.410Z,65.40
2019-04-29T04:42:42.924Z,65.60
2019-04-29T04:45:11.998Z,65.40
2019-04-29T04:47:40.508Z,65.60
2019-04-29T04:50:09.130Z,65.50
2019-04-29T04:52:37.740Z,65.40
2019-04-29T04:55:08.090Z,65.50
2019-04-29T04:57:36.726Z,65.50
2019-04-29T05:00:08.941Z,65.30
2019-04-29T05:02:37.426Z,65.40
2019-04-29T05:05:07.546Z,65.40
2019-04-29T05:07:36.040Z,65.40
2019-04-29T05:10:05.638Z,65.20
2019-04-29T05:12:37.099Z,65.00
2019-04-29T05:15:05.730Z,64.90
2019-04-29T05:17:35.800Z,65.20
2019-04-29T05:20:06.064Z,65.40
2019-04-29T05:22:34.704Z,65.20
2019-04-29T05:25:04.325Z,65.40
2019-04-29T05:27:32.834Z,65.10
2019-04-29T05:30:01.478Z,65.40
2019-04-29T05:32:30.132Z,65.30
2019-04-29T05:35:06.486Z,65.40
2019-04-29T05:37:56.406Z,65.50
2019-04-29T05:40:40.018Z,65.50
2019-04-29T05:43:10.247Z,65.50
2019-04-29T05:45:52.642Z,65.60
2019-04-29T05:48:21.466Z,65.60
2019-04-29T05:51:07.013Z,65.50
2019-04-29T05:53:42.899Z,65.60
2019-04-29T05:56:11.338Z,65.60
2019-04-29T05:58:39.944Z,65.60
2019-04-29T06:01:10.100Z,65.50
2019-04-29T06:03:39.810Z,65.50
2019-04-29T06:06:08.458Z,65.30
2019-04-29T06:08:39.238Z,65.00
2019-04-29T06:11:07.216Z,64.80
2019-04-29T06:13:35.755Z,64.70
2019-04-29T06:16:04.225Z,64.70
2019-04-29T06:18:32.863Z,64.90
2019-04-29T06:21:08.983Z,64.90
2019-04-29T06:23:31.717Z,64.90
2019-04-29T06:26:00.320Z,64.90
2019-04-29T06:28:28.939Z,64.60
2019-04-29T06:30:57.466Z,64.50
2019-04-29T06:33:28.997Z,64.50
2019-04-29T06:35:57.152Z,64.40
2019-04-29T06:38:25.909Z,64.20
2019-04-29T06:40:54.706Z,64.40
2019-04-29T06:43:24.558Z,64.30
2019-04-29T06:45:53.790Z,64.60
2019-04-29T06:48:30.462Z,64.70
2019-04-29T06:50:59.060Z,64.90
2019-04-29T06:53:27.734Z,65.00
2019-04-29T06:55:56.658Z,65.10
2019-04-29T06:58:25.493Z,65.00
2019-04-29T07:00:55.964Z,65.20
2019-04-29T07:03:26.588Z,65.20
2019-04-29T07:05:56.290Z,65.00
2019-04-29T07:08:25.923Z,64.50
2019-04-29T07:10:55.973Z,65.50
2019-04-29T07:13:25.222Z,64.70
2019-04-29T07:15:53.945Z,64.50
2019-04-29T07:18:22.436Z,64.50
2019-04-29T07:20:50.974Z,64.50
2019-04-29T07:23:20.114Z,64.00
2019-04-29T07:25:48.955Z,64.20
2019-04-29T07:28:18.623Z,64.50
2019-04-29T07:31:01.274Z,64.40
2019-04-29T07:33:22.642Z,64.50
2019-04-29T07:35:49.625Z,63.80
2019-04-29T07:38:18.421Z,63.80
2019-04-29T07:40:46.981Z,64.10
2019-04-29T07:43:15.481Z,64.00
2019-04-29T07:46:05.616Z,63.80
2019-04-29T07:48:36.818Z,62.80
2019-04-29T07:51:05.975Z,62.50
2019-04-29T07:53:44.542Z,62.30
2019-04-29T07:56:06.499Z,62.20
2019-04-29T07:58:35.376Z,62.30
2019-04-29T08:01:04.011Z,62.10
2019-04-29T08:03:32.717Z,61.50
2019-04-29T08:06:01.286Z,61.50
2019-04-29T08:08:30.042Z,61.50
2019-04-29T08:10:58.696Z,62.00
2019-04-29T08:13:27.554Z,61.10
2019-04-29T08:15:56.231Z,61.70
2019-04-29T08:18:24.651Z,60.40
2019-04-29T08:20:53.131Z,60.80
2019-04-29T08:23:21.636Z,60.70
2019-04-29T08:25:51.046Z,60.90
2019-04-29T08:28:19.706Z,60.10
2019-04-29T08:30:48.206Z,59.90
2019-04-29T08:33:16.704Z,60.40
2019-04-29T08:35:46.847Z,60.10
2019-04-29T08:38:15.617Z,59.70
2019-04-29T08:40:45.070Z,59.30
2019-04-29T08:43:32.136Z,58.80
2019-04-29T08:46:08.091Z,58.30
2019-04-29T08:48:36.569Z,59.00
2019-04-29T08:51:05.163Z,58.70
2019-04-29T08:53:33.789Z,57.20
2019-04-29T08:56:05.687Z,56.50
2019-04-29T08:58:32.759Z,57.80
2019-04-29T09:01:01.510Z,57.00
2019-04-29T09:03:40.087Z,54.70
2019-04-29T09:06:05.645Z,55.20
2019-04-29T09:08:33.009Z,55.60
2019-04-29T09:11:00.812Z,56.40
2019-04-29T09:13:31.297Z,54.20
2019-04-29T09:15:59.887Z,54.60
2019-04-29T09:18:28.677Z,53.30
2019-04-29T09:20:57.183Z,54.10
2019-04-29T09:23:30.223Z,54.90
2019-04-29T09:26:06.610Z,55.10
2019-04-29T09:28:35.297Z,56.20
2019-04-29T09:31:04.014Z,55.00
2019-04-29T09:33:32.485Z,54.60
2019-04-29T09:36:01.063Z,54.10
2019-04-29T09:38:32.531Z,53.70
2019-04-29T09:41:04.546Z,52.50
2019-04-29T09:43:40.754Z,50.30
2019-04-29T09:46:14.486Z,50.40
2019-04-29T09:48:43.033Z,50.30
2019-04-29T09:51:17.761Z,49.10
2019-04-29T09:53:41.767Z,48.70
2019-04-29T09:56:10.456Z,49.80
2019-04-29T09:58:38.973Z,50.70
2019-04-29T10:01:21.378Z,53.70
2019-04-29T10:03:54.739Z,50.80
2019-04-29T10:06:40.254Z,48.50
2019-04-29T10:09:09.723Z,48.40
2019-04-29T10:11:38.441Z,47.50
2019-04-29T10:14:07.424Z,48.80
2019-04-29T10:16:37.746Z,47.60
2019-04-29T10:19:16.754Z,47.50
2019-04-29T10:21:45.555Z,48.40
2019-04-29T10:24:14.668Z,48.20
2019-04-29T10:26:43.388Z,47.20
2019-04-29T10:29:18.618Z,47.90
2019-04-29T10:31:46.991Z,47.90
2019-04-29T10:34:16.001Z,47.70
2019-04-29T10:36:44.777Z,48.40
2019-04-29T10:39:24.261Z,47.80
2019-04-29T10:41:53.160Z,48.00
2019-04-29T10:44:39.772Z,47.70
2019-04-29T10:47:22.377Z,46.60
2019-04-29T10:49:52.494Z,46.30
2019-04-29T10:52:23.208Z,45.80
2019-04-29T10:54:55.428Z,45.40
2019-04-29T10:57:22.178Z,46.50
2019-04-29T10:59:52.402Z,45.50
2019-04-29T11:02:22.776Z,45.20
2019-04-29T11:04:53.024Z,45.70
2019-04-29T11:07:35.085Z,45.40
2019-04-29T11:10:08.081Z,46.10
2019-04-29T11:12:36.526Z,45.70
2019-04-29T11:15:09.911Z,45.60
2019-04-29T11:17:39.755Z,45.90
2019-04-29T11:20:11.216Z,46.20
2019-04-29T11:22:45.697Z,45.30
2019-04-29T11:25:15.976Z,45.50
2019-04-29T11:27:46.109Z,45.10
2019-04-29T11:30:18.883Z,45.10
2019-04-29T11:33:00.124Z,46.80
2019-04-29T11:35:35.672Z,45.20
2019-04-29T11:38:04.836Z,45.20
2019-04-29T11:40:43.040Z,44.40
2019-04-29T11:43:05.864Z,45.70
2019-04-29T11:45:38.631Z,47.50
2019-04-29T11:48:05.141Z,47.00
2019-04-29T11:50:54.767Z,44.00
2019-04-29T11:53:21.092Z,43.40
2019-04-29T11:55:52.668Z,42.20
2019-04-29T11:58:24.773Z,43.00
2019-04-29T12:00:57.733Z,43.50
2019-04-29T12:03:40.276Z,43.00
2019-04-29T12:06:16.411Z,42.50
2019-04-29T12:08:48.179Z,43.00
2019-04-29T12:11:14.939Z,45.40
2019-04-29T12:13:45.284Z,49.00
2019-04-29T12:16:15.385Z,49.20
2019-04-29T12:18:45.565Z,45.40
2019-04-29T12:21:33.654Z,42.60
2019-04-29T12:24:02.230Z,40.40
2019-04-29T12:26:34.950Z,36.40
2019-04-29T12:29:01.132Z,36.40
2019-04-29T12:31:31.219Z,37.50
2019-04-29T12:34:03.825Z,39.70
2019-04-29T12:36:36.701Z,38.40
2019-04-29T12:39:07.161Z,38.30
2019-04-29T12:41:48.961Z,35.60
2019-04-29T12:44:17.536Z,35.70
2019-04-29T12:46:53.857Z,34.00
2019-04-29T12:49:22.350Z,30.10
2019-04-29T12:51:50.890Z,30.00
2019-04-29T12:54:19.534Z,33.60
2019-04-29T12:56:49.860Z,31.90
2019-04-29T12:59:18.455Z,31.30
2019-04-29T13:02:04.944Z,31.20
2019-04-29T13:04:45.148Z,30.20
2019-04-29T13:07:22.379Z,31.00
2019-04-29T13:09:52.553Z,32.00
2019-04-29T13:12:21.069Z,32.30
2019-04-29T13:15:12.301Z,30.00
2019-04-29T13:18:03.189Z,30.90
2019-04-29T13:20:22.390Z,31.10
2019-04-29T13:22:51.062Z,31.10
2019-04-29T13:25:20.724Z,32.20
2019-04-29T13:27:50.715Z,33.20
2019-04-29T13:30:19.774Z,33.70
2019-04-29T13:32:48.329Z,34.20
2019-04-29T13:35:16.994Z,31.20
2019-04-29T13:37:45.514Z,30.50
2019-04-29T13:40:14.267Z,30.50
2019-04-29T13:42:48.540Z,31.20
2019-04-29T13:45:20.062Z,31.70
2019-04-29T13:47:50.478Z,31.40
2019-04-29T13:50:39.746Z,32.00
2019-04-29T13:53:06.633Z,32.30
2019-04-29T13:55:47.688Z,32.40
2019-04-29T13:58:05.617Z,33.70
2019-04-29T14:00:36.503Z,33.80
2019-04-29T14:03:11.104Z,33.70
2019-04-29T14:05:38.090Z,33.10
2019-04-29T14:08:09.353Z,33.00
2019-04-29T14:10:38.081Z,32.60
2019-04-29T14:13:15.224Z,32.80
2019-04-29T14:15:40.395Z,33.30
2019-04-29T14:18:11.711Z,33.50
2019-04-29T14:20:37.678Z,33.60
2019-04-29T14:23:06.438Z,33.70
2019-04-29T14:25:35.081Z,33.70
2019-04-29T14:28:03.650Z,34.60
2019-04-29T14:30:38.833Z,37.10
2019-04-29T14:33:03.424Z,38.80
2019-04-29T14:35:48.579Z,32.60
2019-04-29T14:38:15.782Z,31.60
2019-04-29T14:40:44.958Z,30.30
2019-04-29T14:43:32.302Z,31.10
2019-04-29T14:46:12.409Z,32.20
2019-04-29T14:48:42.734Z,32.40
2019-04-29T14:51:11.207Z,33.00
2019-04-29T14:53:39.918Z,34.80
2019-04-29T14:56:08.441Z,33.70
2019-04-29T14:58:37.200Z,33.10
2019-04-29T15:01:08.713Z,33.00
2019-04-29T15:03:55.450Z,32.80
2019-04-29T15:06:24.072Z,33.20
2019-04-29T15:08:52.700Z,33.10
2019-04-29T15:11:31.545Z,33.70
2019-04-29T15:13:54.908Z,33.90
2019-04-29T15:16:25.278Z,34.10
2019-04-29T15:19:12.884Z,35.20
2019-04-29T15:21:46.112Z,37.10
2019-04-29T15:24:17.496Z,39.50
2019-04-29T15:26:45.375Z,35.60
2019-04-29T15:29:13.953Z,36.30
2019-04-29T15:31:46.507Z,33.40
2019-04-29T15:34:14.498Z,33.30
2019-04-29T15:36:43.039Z,33.10
2019-04-29T15:39:12.418Z,32.40
2019-04-29T15:41:41.720Z,31.30
2019-04-29T15:44:18.953Z,31.90
2019-04-29T15:46:47.957Z,30.20
2019-04-29T15:49:11.233Z,28.70
2019-04-29T15:51:43.989Z,28.90
2019-04-29T15:54:14.420Z,29.00
2019-04-29T15:56:40.548Z,29.30
2019-04-29T15:59:10.319Z,30.00
2019-04-29T16:01:41.559Z,32.70
2019-04-29T16:04:10.837Z,32.20
2019-04-29T16:06:53.473Z,32.20
2019-04-29T16:09:30.379Z,32.80
2019-04-29T16:12:11.486Z,32.80
2019-04-29T16:14:34.491Z,31.90
2019-04-29T16:17:03.082Z,31.20
2019-04-29T16:19:31.598Z,31.60
2019-04-29T16:22:00.137Z,32.00
2019-04-29T16:24:37.150Z,31.30
2019-04-29T16:27:01.209Z,30.30
2019-04-29T16:29:28.959Z,30.90
2019-04-29T16:32:02.378Z,30.10
2019-04-29T16:34:27.686Z,29.60
2019-04-29T16:36:56.239Z,30.40
2019-04-29T16:39:24.894Z,31.50
2019-04-29T16:41:58.289Z,30.60
2019-04-29T16:44:35.391Z,29.80
2019-04-29T16:46:56.293Z,29.50
2019-04-29T16:49:24.909Z,29.80
2019-04-29T16:51:55.630Z,30.40
2019-04-29T16:54:28.239Z,31.30
2019-04-29T16:56:53.851Z,32.00
2019-04-29T16:59:22.521Z,33.00
2019-04-29T17:01:51.290Z,34.10
2019-04-29T17:04:19.862Z,33.80
2019-04-29T17:07:11.144Z,34.10
2019-04-29T17:09:29.105Z,34.50
2019-04-29T17:11:58.560Z,34.30
2019-04-29T17:14:27.218Z,34.60
2019-04-29T17:16:57.235Z,34.90
2019-04-29T17:19:25.758Z,35.20
2019-04-29T17:22:22.034Z,35.50
2019-04-29T17:24:24.581Z,35.70
2019-04-29T17:27:11.568Z,36.20
2019-04-29T17:30:03.355Z,37.20
2019-04-29T17:32:44.628Z,38.70
2019-04-29T17:35:12.061Z,39.60
2019-04-29T17:37:40.842Z,39.30
2019-04-29T17:40:10.779Z,39.40
2019-04-29T17:42:40.966Z,39.60
2019-04-29T17:45:11.991Z,39.30
2019-04-29T17:47:47.366Z,39.50
2019-04-29T17:50:16.547Z,39.90
2019-04-29T17:52:45.218Z,39.90
2019-04-29T17:55:25.029Z,40.30
2019-04-29T17:57:55.426Z,40.70
2019-04-29T18:00:44.584Z,40.90
2019-04-29T18:03:27.511Z,41.40
2019-04-29T18:05:57.812Z,41.40
2019-04-29T18:08:28.006Z,42.00
2019-04-29T18:10:59.915Z,43.00
2019-04-29T18:13:28.601Z,43.80
2019-04-29T18:16:02.667Z,43.30
2019-04-29T18:18:49.185Z,43.50
2019-04-29T18:21:25.000Z,44.00
2019-04-29T18:23:59.333Z,44.00
2019-04-29T18:26:29.622Z,43.90
2019-04-29T18:29:03.431Z,44.40
2019-04-29T18:31:30.563Z,44.70
2019-04-29T18:34:00.037Z,43.90
2019-04-29T18:36:28.832Z,44.40
2019-04-29T18:38:57.372Z,44.60
2019-04-29T18:41:28.681Z,44.30
2019-04-29T18:44:02.898Z,44.90
2019-04-29T18:46:27.995Z,45.20
2019-04-29T18:49:02.777Z,45.40
2019-04-29T18:51:28.794Z,45.40
2019-04-29T18:53:57.197Z,45.20
2019-04-29T18:56:26.111Z,45.20
2019-04-29T18:58:55.585Z,45.20
2019-04-29T19:01:28.989Z,45.00
2019-04-29T19:03:56.128Z,45.00
2019-04-29T19:06:25.079Z,45.60
2019-04-29T19:08:54.934Z,45.30
2019-04-29T19:11:31.927Z,45.60
2019-04-29T19:13:54.223Z,45.50
2019-04-29T19:16:23.299Z,45.80
2019-04-29T19:18:56.497Z,45.90
2019-04-29T19:21:23.635Z,45.90
2019-04-29T19:23:52.591Z,45.80
2019-04-29T19:26:25.753Z,45.60
2019-04-29T19:28:53.132Z,46.00
2019-04-29T19:31:21.697Z,45.80
2019-04-29T19:33:50.275Z,45.70
2019-04-29T19:36:21.867Z,45.50
2019-04-29T19:38:49.076Z,45.50
2019-04-29T19:41:18.188Z,45.70
2019-04-29T19:43:48.447Z,45.80
2019-04-29T19:46:24.103Z,45.50
2019-04-29T19:48:47.604Z,46.00
2019-04-29T19:51:18.515Z,45.60
2019-04-29T19:53:49.464Z,45.80
2019-04-29T19:56:23.168Z,45.70
2019-04-29T19:58:47.348Z,45.60
2019-04-29T20:01:26.547Z,45.70
2019-04-29T20:03:56.854Z,45.70
2019-04-29T20:06:27.438Z,45.60
2019-04-29T20:09:00.283Z,45.70
2019-04-29T20:11:32.630Z,46.00
2019-04-29T20:14:04.823Z,45.70
2019-04-29T20:16:56.238Z,45.70
2019-04-29T20:19:37.518Z,45.60
2019-04-29T20:22:09.411Z,46.00
2019-04-29T20:24:37.114Z,46.50
2019-04-29T20:27:06.330Z,46.80
2019-04-29T20:29:38.479Z,47.00
2019-04-29T20:32:07.417Z,46.70
2019-04-29T20:34:36.203Z,47.40
2019-04-29T20:37:06.003Z,47.20
2019-04-29T20:39:35.724Z,47.30
2019-04-29T20:42:06.524Z,47.50
2019-04-29T20:44:36.877Z,47.20
2019-04-29T20:47:19.388Z,47.40
2019-04-29T20:49:38.627Z,47.70
2019-04-29T20:52:22.569Z,47.90
2019-04-29T20:54:57.589Z,48.50
2019-04-29T20:57:22.218Z,49.20
2019-04-29T20:59:51.771Z,48.50
2019-04-29T21:02:31.407Z,48.70
2019-04-29T21:04:50.918Z,48.90
2019-04-29T21:07:23.768Z,48.90
2019-04-29T21:09:49.802Z,48.90
2019-04-29T21:12:38.515Z,49.30
2019-04-29T21:15:16.156Z,49.70
2019-04-29T21:17:45.430Z,50.40
2019-04-29T21:20:15.446Z,50.40
2019-04-29T21:22:45.566Z,50.20
2019-04-29T21:25:14.147Z,50.60
2019-04-29T21:27:42.677Z,50.20
2019-04-29T21:30:11.409Z,50.30
2019-04-29T21:32:39.961Z,51.00
2019-04-29T21:35:14.180Z,50.90
2019-04-29T21:37:44.854Z,51.30
2019-04-29T21:40:28.803Z,52.30
2019-04-29T21:42:59.055Z,51.80
2019-04-29T21:45:27.570Z,52.80
2019-04-29T21:47:56.290Z,52.90
2019-04-29T21:50:29.033Z,52.80
2019-04-29T21:53:01.778Z,52.60
2019-04-29T21:55:29.131Z,52.40
2019-04-29T21:57:58.804Z,52.70
2019-04-29T22:00:25.868Z,53.00
2019-04-29T22:02:55.440Z,53.00
2019-04-29T22:05:25.093Z,52.40
2019-04-29T22:07:53.777Z,53.20
2019-04-29T22:10:27.455Z,54.40
2019-04-29T22:12:58.336Z,54.00
2019-04-29T22:15:32.174Z,54.90
2019-04-29T22:17:56.450Z,54.70
2019-04-29T22:20:23.439Z,54.80
2019-04-29T22:22:51.908Z,55.50
2019-04-29T22:25:20.348Z,55.00
2019-04-29T22:27:48.935Z,55.20
2019-04-29T22:30:18.649Z,54.90
2019-04-29T22:32:51.671Z,55.60
2019-04-29T22:35:17.659Z,55.50
2019-04-29T22:37:46.306Z,56.10
2019-04-29T22:40:15.446Z,55.40
2019-04-29T22:42:48.703Z,55.20
2019-04-29T22:45:16.884Z,55.50
2019-04-29T22:47:45.672Z,55.60
2019-04-29T22:50:14.486Z,55.80
2019-04-29T22:52:42.908Z,55.70
2019-04-29T22:55:11.519Z,55.60
2019-04-29T22:57:40.169Z,54.80
2019-04-29T23:00:09.548Z,55.10
2019-04-29T23:02:37.989Z,55.00
2019-04-29T23:05:06.420Z,55.30
2019-04-29T23:07:35.580Z,54.90
2019-04-29T23:10:06.659Z,55.20
2019-04-29T23:12:35.171Z,54.80
2019-04-29T23:15:05.776Z,55.20
2019-04-29T23:17:35.458Z,55.20
2019-04-29T23:20:09.138Z,55.00
2019-04-29T23:22:39.306Z,54.90
2019-04-29T23:25:12.103Z,55.60
2019-04-29T23:27:40.867Z,56.00
2019-04-29T23:30:09.303Z,55.90
2019-04-29T23:32:39.453Z,55.90
2019-04-29T23:35:09.769Z,55.70
2019-04-29T23:37:38.212Z,56.70
2019-04-29T23:40:06.751Z,56.10
2019-04-29T23:42:35.207Z,56.80
2019-04-29T23:45:05.315Z,56.20
2019-04-29T23:47:35.613Z,56.30
2019-04-29T23:50:04.553Z,57.00
2019-04-29T23:52:32.991Z,56.70
2019-04-29T23:55:01.723Z,56.90
2019-04-29T23:57:31.799Z,57.30
